createdAt,value
2023-05-22T00:00:07.588Z,64.20
2023-05-22T00:02:43.187Z,63.10
2023-05-22T00:05:12.582Z,63.32
2023-05-22T00:07:40.387Z,63.46
2023-05-22T00:10:07.559Z,63.80
2023-05-22T00:12:39.694Z,63.94
2023-05-22T00:15:07.049Z,63.90
2023-05-22T00:17:34.342Z,63.65
2023-05-22T00:20:08.319Z,63.11
2023-05-22T00:22:39.548Z,63.81
2023-05-22T00:25:07.938Z,62.88
2023-05-22T00:27:39.929Z,61.91
2023-05-22T00:30:08.776Z,62.05
2023-05-22T00:32:36.058Z,61.19
2023-05-22T00:35:03.564Z,60.77
2023-05-22T00:37:30.327Z,61.64
2023-05-22T00:39:56.910Z,60.63
2023-05-22T00:42:25.677Z,61.50
2023-05-22T00:44:52.206Z,61.75
2023-05-22T00:47:18.920Z,61.17
2023-05-22T00:49:50.776Z,60.61
2023-05-22T00:52:22.837Z,61.11
2023-05-22T00:54:50.848Z,60.94
2023-05-22T00:57:22.128Z,60.38
2023-05-22T00:59:49.247Z,60.46
2023-05-22T01:02:16.779Z,60.44
2023-05-22T01:04:48.753Z,59.68
2023-05-22T01:07:18.781Z,59.26
2023-05-22T01:09:45.473Z,59.43
2023-05-22T01:12:42.726Z,59.68
2023-05-22T01:15:09.301Z,59.23
2023-05-22T01:17:46.388Z,58.11
2023-05-22T01:20:33.997Z,58.21
2023-05-22T01:23:40.612Z,57.98
2023-05-22T01:26:13.959Z,58.25
2023-05-22T01:28:57.130Z,57.38
2023-05-22T01:31:31.474Z,57.52
2023-05-22T01:34:04.838Z,56.86
2023-05-22T01:36:37.121Z,56.57
2023-05-22T01:39:06.384Z,56.60
2023-05-22T01:41:34.275Z,56.04
2023-05-22T01:44:01.987Z,55.64
2023-05-22T01:46:30.287Z,55.72
2023-05-22T01:48:57.797Z,55.66
2023-05-22T01:51:32.465Z,55.42
2023-05-22T01:54:32.890Z,55.33
2023-05-22T01:57:16.625Z,55.17
2023-05-22T01:59:59.592Z,54.42
2023-05-22T02:02:27.728Z,54.56
2023-05-22T02:05:00.798Z,54.80
2023-05-22T02:07:29.094Z,54.12
2023-05-22T02:09:59.704Z,54.59
2023-05-22T02:12:26.906Z,54.84
2023-05-22T02:14:54.138Z,54.64
2023-05-22T02:17:26.158Z,55.12
2023-05-22T02:19:52.859Z,55.55
2023-05-22T02:22:21.904Z,55.33
2023-05-22T02:24:53.212Z,55.26
2023-05-22T02:27:20.018Z,55.64
2023-05-22T02:29:51.502Z,55.21
2023-05-22T02:32:18.098Z,54.93
2023-05-22T02:34:48.317Z,54.39
2023-05-22T02:37:16.057Z,54.87
2023-05-22T02:39:42.610Z,54.82
2023-05-22T02:42:09.348Z,54.93
2023-05-22T02:44:38.204Z,55.00
2023-05-22T02:47:04.844Z,54.62
2023-05-22T02:49:31.537Z,55.99
2023-05-22T02:51:58.141Z,56.19
2023-05-22T02:54:27.473Z,56.86
2023-05-22T02:56:54.162Z,56.25
2023-05-22T02:59:20.777Z,56.42
2023-05-22T03:01:48.544Z,56.14
2023-05-22T03:04:17.459Z,56.64
2023-05-22T03:06:46.380Z,57.29
2023-05-22T03:09:13.026Z,57.20
2023-05-22T03:11:41.984Z,56.53
2023-05-22T03:14:08.643Z,57.15
2023-05-22T03:16:35.279Z,56.93
2023-05-22T03:19:11.638Z,56.86
2023-05-22T03:21:38.735Z,56.65
2023-05-22T03:24:05.843Z,56.77
2023-05-22T03:26:34.857Z,56.99
2023-05-22T03:29:01.546Z,56.75
2023-05-22T03:31:31.477Z,56.40
2023-05-22T03:34:03.722Z,57.12
2023-05-22T03:36:35.956Z,57.05
2023-05-22T03:39:05.387Z,57.79
2023-05-22T03:41:32.067Z,57.01
2023-05-22T03:44:03.879Z,57.27
2023-05-22T03:46:30.525Z,56.48
2023-05-22T03:48:57.191Z,56.29
2023-05-22T03:51:23.979Z,55.70
2023-05-22T03:53:52.887Z,56.23
2023-05-22T03:56:21.806Z,55.83
2023-05-22T03:58:48.884Z,55.44
2023-05-22T04:01:16.913Z,56.68
2023-05-22T04:03:43.775Z,56.01
2023-05-22T04:06:13.760Z,55.94
2023-05-22T04:08:40.460Z,55.78
2023-05-22T04:11:07.035Z,56.20
2023-05-22T04:13:33.584Z,55.59
2023-05-22T04:16:02.089Z,56.67
2023-05-22T04:18:28.980Z,55.46
2023-05-22T04:20:55.961Z,55.66
2023-05-22T04:23:22.777Z,56.10
2023-05-22T04:25:49.740Z,55.40
2023-05-22T04:28:17.709Z,55.79
2023-05-22T04:30:47.108Z,55.67
2023-05-22T04:33:13.781Z,55.98
2023-05-22T04:35:44.331Z,56.25
2023-05-22T04:38:13.287Z,56.33
2023-05-22T04:40:40.068Z,56.73
2023-05-22T04:43:09.115Z,56.29
2023-05-22T04:45:42.328Z,55.81
2023-05-22T04:48:12.025Z,56.19
2023-05-22T04:50:39.046Z,55.72
2023-05-22T04:53:08.109Z,55.06
2023-05-22T04:55:34.722Z,55.17
2023-05-22T04:58:01.588Z,55.48
2023-05-22T05:00:28.999Z,54.74
2023-05-22T05:02:57.488Z,54.95
2023-05-22T05:05:24.377Z,55.06
2023-05-22T05:07:51.760Z,54.14
2023-05-22T05:10:18.619Z,54.24
2023-05-22T05:12:45.580Z,54.32
2023-05-22T05:15:12.371Z,53.68
2023-05-22T05:17:43.555Z,53.47
2023-05-22T05:20:14.619Z,54.78
2023-05-22T05:22:41.390Z,55.69
2023-05-22T05:25:09.594Z,55.04
2023-05-22T05:27:38.180Z,53.08
2023-05-22T05:30:05.298Z,54.71
2023-05-22T05:32:31.954Z,54.83
2023-05-22T05:34:58.677Z,53.69
2023-05-22T05:37:26.112Z,52.60
2023-05-22T05:39:57.507Z,51.89
2023-05-22T05:42:24.124Z,51.88
2023-05-22T05:44:53.139Z,51.52
2023-05-22T05:47:19.793Z,51.36
2023-05-22T05:49:49.484Z,52.23
2023-05-22T05:52:16.090Z,49.30
2023-05-22T05:54:49.416Z,51.62
2023-05-22T05:57:16.549Z,52.38
2023-05-22T05:59:43.149Z,51.87
2023-05-22T06:02:12.857Z,49.81
2023-05-22T06:04:39.630Z,51.55
2023-05-22T06:07:09.260Z,49.76
2023-05-22T06:09:36.313Z,51.76
2023-05-22T06:12:05.239Z,50.96
2023-05-22T06:14:31.873Z,50.55
2023-05-22T06:17:01.964Z,51.54
2023-05-22T06:19:31.696Z,52.01
2023-05-22T06:21:58.398Z,47.34
2023-05-22T06:24:25.004Z,48.16
2023-05-22T06:26:56.400Z,51.39
2023-05-22T06:29:23.185Z,50.61
2023-05-22T06:31:52.326Z,46.15
2023-05-22T06:34:19.045Z,48.15
2023-05-22T06:36:46.040Z,51.53
2023-05-22T06:39:12.691Z,51.45
2023-05-22T06:41:39.255Z,49.97
2023-05-22T06:44:08.410Z,48.88
2023-05-22T06:46:35.379Z,51.00
2023-05-22T06:49:05.061Z,50.97
2023-05-22T06:51:34.313Z,46.19
2023-05-22T06:54:01.132Z,46.61
2023-05-22T06:56:30.952Z,45.63
2023-05-22T06:58:59.965Z,43.82
2023-05-22T07:01:26.944Z,42.35
2023-05-22T07:03:53.630Z,42.74
2023-05-22T07:06:20.406Z,43.68
2023-05-22T07:08:49.243Z,44.49
2023-05-22T07:11:15.679Z,44.66
2023-05-22T07:13:44.832Z,42.98
2023-05-22T07:16:11.520Z,43.95
2023-05-22T07:18:40.111Z,42.92
2023-05-22T07:21:06.753Z,44.71
2023-05-22T07:23:35.704Z,44.20
2023-05-22T07:26:04.416Z,43.21
2023-05-22T07:28:33.517Z,44.23
2023-05-22T07:31:00.396Z,45.83
2023-05-22T07:33:31.814Z,51.84
2023-05-22T07:35:58.405Z,43.95
2023-05-22T07:38:25.013Z,43.24
2023-05-22T07:40:51.630Z,43.06
2023-05-22T07:43:18.339Z,44.45
2023-05-22T07:45:47.136Z,42.57
2023-05-22T07:48:13.791Z,44.19
2023-05-22T07:50:45.496Z,43.07
2023-05-22T07:53:14.963Z,44.61
2023-05-22T07:55:42.266Z,45.49
2023-05-22T07:58:10.857Z,45.92
2023-05-22T08:00:39.802Z,46.29
2023-05-22T08:03:12.387Z,46.22
2023-05-22T08:05:39.163Z,46.17
2023-05-22T08:08:10.343Z,45.36
2023-05-22T08:10:47.212Z,46.57
2023-05-22T08:13:23.784Z,43.25
2023-05-22T08:15:50.626Z,44.25
2023-05-22T08:18:29.163Z,44.60
2023-05-22T08:20:56.049Z,46.80
2023-05-22T08:23:25.029Z,43.84
2023-05-22T08:25:57.506Z,44.37
2023-05-22T08:28:24.239Z,45.09
2023-05-22T08:30:51.024Z,44.14
2023-05-22T08:33:17.761Z,44.57
2023-05-22T08:35:46.923Z,42.59
2023-05-22T08:38:18.332Z,42.89
2023-05-22T08:40:48.869Z,41.93
2023-05-22T08:43:15.936Z,43.20
2023-05-22T08:45:43.834Z,43.09
2023-05-22T08:48:14.716Z,43.12
2023-05-22T08:50:43.581Z,40.09
2023-05-22T08:53:15.723Z,41.54
2023-05-22T08:55:42.654Z,40.53
2023-05-22T08:58:14.387Z,41.64
2023-05-22T09:00:41.862Z,43.95
2023-05-22T09:03:13.994Z,42.78
2023-05-22T09:05:41.442Z,43.92
2023-05-22T09:08:18.975Z,43.35
2023-05-22T09:10:46.970Z,41.63
2023-05-22T09:13:30.552Z,41.70
2023-05-22T09:16:07.554Z,43.91
2023-05-22T09:18:34.226Z,40.83
2023-05-22T09:21:03.745Z,40.39
2023-05-22T09:23:33.708Z,41.68
2023-05-22T09:26:02.686Z,39.97
2023-05-22T09:28:37.028Z,41.20
2023-05-22T09:31:04.723Z,42.98
2023-05-22T09:33:34.549Z,40.65
2023-05-22T09:36:01.608Z,42.13
2023-05-22T09:38:30.094Z,41.54
2023-05-22T09:40:57.221Z,40.51
2023-05-22T09:43:28.728Z,39.25
2023-05-22T09:46:04.738Z,40.48
2023-05-22T09:48:38.179Z,39.39
2023-05-22T09:51:08.600Z,40.25
2023-05-22T09:53:38.289Z,42.85
2023-05-22T09:56:10.952Z,40.80
2023-05-22T09:58:43.243Z,38.55
2023-05-22T10:01:13.873Z,42.95
2023-05-22T10:03:43.102Z,39.63
2023-05-22T10:06:12.336Z,38.43
2023-05-22T10:08:44.125Z,39.96
2023-05-22T10:11:13.723Z,38.31
2023-05-22T10:13:43.502Z,39.60
2023-05-22T10:16:16.362Z,39.81
2023-05-22T10:18:49.149Z,42.22
2023-05-22T10:21:18.654Z,38.20
2023-05-22T10:23:45.759Z,38.12
2023-05-22T10:26:16.527Z,37.72
2023-05-22T10:28:48.462Z,38.51
2023-05-22T10:31:20.486Z,37.61
2023-05-22T10:33:59.531Z,37.08
2023-05-22T10:36:51.284Z,35.71
2023-05-22T10:39:32.753Z,36.48
2023-05-22T10:41:59.428Z,36.12
2023-05-22T10:44:30.635Z,36.40
2023-05-22T10:47:10.201Z,37.43
2023-05-22T10:49:44.305Z,35.68
2023-05-22T10:52:14.847Z,38.09
2023-05-22T10:54:53.524Z,39.71
2023-05-22T10:57:20.884Z,35.73
2023-05-22T10:59:47.909Z,38.79
2023-05-22T11:02:31.331Z,35.65
2023-05-22T11:05:25.868Z,34.63
2023-05-22T11:08:09.699Z,35.72
2023-05-22T11:10:56.245Z,37.56
2023-05-22T11:13:29.352Z,36.98
2023-05-22T11:15:57.689Z,35.29
2023-05-22T11:18:28.407Z,34.66
2023-05-22T11:20:58.977Z,34.83
2023-05-22T11:23:27.889Z,38.60
2023-05-22T11:25:56.745Z,36.47
2023-05-22T11:28:26.558Z,36.36
2023-05-22T11:30:54.378Z,34.25
2023-05-22T11:33:21.214Z,35.41
2023-05-22T11:35:51.777Z,36.97
2023-05-22T11:38:19.405Z,35.31
2023-05-22T11:40:46.006Z,37.04
2023-05-22T11:43:12.616Z,36.56
2023-05-22T11:45:39.938Z,35.99
2023-05-22T11:48:09.089Z,32.51
2023-05-22T11:50:42.706Z,34.62
2023-05-22T11:53:09.867Z,34.80
2023-05-22T11:55:38.764Z,34.99
2023-05-22T11:58:07.604Z,34.99
2023-05-22T12:00:36.386Z,36.71
2023-05-22T12:03:11.837Z,35.98
2023-05-22T12:05:44.805Z,35.40
2023-05-22T12:08:16.531Z,35.14
2023-05-22T12:10:55.126Z,37.38
2023-05-22T12:13:26.952Z,34.70
2023-05-22T12:15:56.221Z,34.64
2023-05-22T12:18:23.002Z,33.80
2023-05-22T12:20:56.247Z,35.21
2023-05-22T12:23:26.968Z,36.90
2023-05-22T12:26:12.497Z,33.53
2023-05-22T12:28:41.504Z,33.08
2023-05-22T12:31:08.197Z,35.43
2023-05-22T12:33:34.804Z,32.96
2023-05-22T12:36:08.959Z,34.88
2023-05-22T12:38:41.441Z,35.09
2023-05-22T12:41:08.085Z,31.87
2023-05-22T12:43:37.201Z,32.32
2023-05-22T12:46:04.048Z,33.80
2023-05-22T12:48:30.729Z,34.33
2023-05-22T12:50:59.907Z,33.50
2023-05-22T12:53:26.554Z,36.75
2023-05-22T12:55:53.135Z,34.84
2023-05-22T12:58:19.719Z,35.16
2023-05-22T13:00:46.336Z,33.66
2023-05-22T13:33:27.390Z,33.61
2023-05-22T13:35:56.300Z,33.14
2023-05-22T13:38:25.401Z,34.65
2023-05-22T13:40:54.534Z,33.00
2023-05-22T13:43:21.158Z,34.49
2023-05-22T13:45:47.850Z,36.97
2023-05-22T13:48:16.996Z,35.33
2023-05-22T13:50:45.812Z,35.18
2023-05-22T13:53:24.311Z,35.23
2023-05-22T13:55:51.087Z,35.11
2023-05-22T13:58:17.678Z,34.84
2023-05-22T14:00:44.342Z,34.74
2023-05-22T14:03:17.315Z,33.79
2023-05-22T14:05:47.523Z,34.19
2023-05-22T14:08:14.162Z,33.92
2023-05-22T14:10:45.279Z,36.16
2023-05-22T14:13:11.901Z,34.01
2023-05-22T14:15:38.618Z,33.58
2023-05-22T14:18:07.563Z,34.86
2023-05-22T14:20:34.485Z,35.58
2023-05-22T14:23:05.930Z,34.97
2023-05-22T14:25:35.079Z,33.78
2023-05-22T14:28:01.805Z,34.14
2023-05-22T14:30:28.396Z,35.03
2023-05-22T14:32:55.038Z,35.53
2023-05-22T14:35:21.738Z,35.31
2023-05-22T14:37:50.846Z,36.39
2023-05-22T14:40:17.660Z,34.56
2023-05-22T14:42:44.896Z,36.47
2023-05-22T14:45:12.163Z,35.67
2023-05-22T14:47:40.631Z,38.84
2023-05-22T14:52:41.222Z,35.53
2023-05-22T14:55:10.780Z,37.94
2023-05-22T14:57:37.422Z,38.58
2023-05-22T15:00:08.765Z,39.74
2023-05-22T15:02:35.478Z,42.30
2023-05-22T15:05:02.313Z,42.76
2023-05-22T15:10:05.814Z,39.90
2023-05-22T15:12:32.632Z,39.11
2023-05-22T15:14:59.421Z,39.04
2023-05-22T15:17:26.078Z,38.96
2023-05-22T15:19:52.732Z,39.78
2023-05-22T15:22:23.162Z,39.45
2023-05-22T15:25:04.116Z,39.93
2023-05-22T15:27:34.959Z,40.07
2023-05-22T15:30:02.405Z,40.21
2023-05-22T15:32:31.557Z,40.12
2023-05-22T15:34:58.302Z,42.10
2023-05-22T15:37:24.943Z,39.85
2023-05-22T15:39:51.560Z,40.47
2023-05-22T15:42:18.270Z,42.42
2023-05-22T15:44:47.574Z,43.55
2023-05-22T15:47:14.850Z,41.31
2023-05-22T15:49:48.727Z,45.15
2023-05-22T15:52:15.929Z,41.20
2023-05-22T15:54:42.610Z,43.26
2023-05-22T15:57:09.354Z,42.16
2023-05-22T15:59:38.211Z,42.36
2023-05-22T16:02:07.346Z,43.86
2023-05-22T16:04:33.977Z,44.36
2023-05-22T16:07:02.840Z,43.01
2023-05-22T16:09:31.402Z,43.40
2023-05-22T16:12:02.110Z,42.94
2023-05-22T16:14:29.144Z,43.33
2023-05-22T16:16:59.094Z,44.55
2023-05-22T16:19:29.052Z,44.28
2023-05-22T16:21:58.607Z,43.29
2023-05-22T16:24:27.598Z,44.24
2023-05-22T16:26:56.434Z,43.62
2023-05-22T16:29:23.082Z,44.54
2023-05-22T16:31:52.416Z,43.71
2023-05-22T16:34:19.108Z,42.94
2023-05-22T16:36:49.223Z,43.42
2023-05-22T16:39:16.000Z,43.32
2023-05-22T16:41:44.807Z,44.56
2023-05-22T16:44:11.419Z,44.27
2023-05-22T16:46:38.055Z,44.57
2023-05-22T16:49:04.749Z,44.79
2023-05-22T16:51:33.698Z,44.13
2023-05-22T16:54:00.307Z,43.78
2023-05-22T16:56:34.157Z,43.90
2023-05-22T16:59:03.504Z,44.08
2023-05-22T17:01:32.322Z,44.12
2023-05-22T17:04:02.079Z,44.49
2023-05-22T17:06:29.566Z,43.44
2023-05-22T17:08:58.484Z,48.60
2023-05-22T17:11:26.103Z,51.38
2023-05-22T17:13:54.049Z,48.66
2023-05-22T17:16:23.249Z,48.20
2023-05-22T17:18:59.401Z,48.31
2023-05-22T17:21:29.589Z,49.12
2023-05-22T17:24:01.848Z,49.53
2023-05-22T17:30:17.621Z,50.57
2023-05-22T17:32:45.171Z,50.40
2023-05-22T17:35:16.503Z,51.40
2023-05-22T17:37:43.138Z,51.11
2023-05-22T17:40:10.319Z,52.78
2023-05-22T17:42:37.012Z,52.06
2023-05-22T17:45:03.850Z,51.99
2023-05-22T17:47:32.702Z,51.83
2023-05-22T17:49:59.428Z,52.35
2023-05-22T17:52:26.135Z,52.78
2023-05-22T17:54:52.985Z,53.67
2023-05-22T17:57:19.621Z,53.63
2023-05-22T17:59:46.189Z,52.10
2023-05-22T18:02:15.781Z,52.88
2023-05-22T18:04:44.724Z,52.59
2023-05-22T18:07:11.575Z,52.09
2023-05-22T18:09:40.731Z,52.84
2023-05-22T18:12:09.387Z,51.53
2023-05-22T18:14:39.569Z,53.04
2023-05-22T18:17:08.460Z,52.33
2023-05-22T18:19:37.865Z,53.08
2023-05-22T18:22:04.753Z,52.62
2023-05-22T18:24:36.456Z,52.65
2023-05-22T18:27:03.838Z,54.23
2023-05-22T18:29:30.683Z,53.47
2023-05-22T18:32:02.390Z,53.94
2023-05-22T18:34:32.286Z,53.98
2023-05-22T18:37:03.877Z,53.35
2023-05-22T18:39:30.581Z,53.66
2023-05-22T18:42:06.445Z,53.68
2023-05-22T18:44:38.133Z,53.89
2023-05-22T18:47:08.159Z,54.25
2023-05-22T18:49:37.269Z,54.89
2023-05-22T18:52:07.157Z,54.48
2023-05-22T18:54:36.816Z,54.79
2023-05-22T19:00:55.427Z,56.64
2023-05-22T19:03:25.123Z,56.56
2023-05-22T19:05:51.799Z,56.22
2023-05-22T19:08:26.512Z,56.89
2023-05-22T19:10:55.932Z,56.22
2023-05-22T19:13:22.476Z,55.56
2023-05-22T19:15:49.131Z,56.70
2023-05-22T19:18:15.959Z,58.17
2023-05-22T19:20:43.299Z,57.82
2023-05-22T19:23:13.755Z,57.97
2023-05-22T19:25:40.606Z,57.73
2023-05-22T19:28:09.381Z,58.80
2023-05-22T19:30:41.680Z,58.73
2023-05-22T19:33:11.247Z,58.44
2023-05-22T19:35:38.915Z,58.85
2023-05-22T19:38:08.540Z,58.45
2023-05-22T19:40:37.583Z,59.13
2023-05-22T19:43:06.959Z,59.42
2023-05-22T19:45:33.637Z,58.76
2023-05-22T19:48:00.527Z,58.89
2023-05-22T19:56:47.892Z,60.14
2023-05-22T19:59:14.618Z,61.36
2023-05-22T20:01:43.631Z,61.49
2023-05-22T20:04:13.371Z,62.15
2023-05-22T20:06:40.355Z,62.51
2023-05-22T20:09:06.913Z,62.98
2023-05-22T20:11:35.786Z,61.84
2023-05-22T20:14:03.397Z,62.08
2023-05-22T20:16:30.006Z,61.64
2023-05-22T20:18:56.754Z,61.85
2023-05-22T20:21:23.396Z,61.53
2023-05-22T20:23:52.902Z,60.39
2023-05-22T20:26:21.883Z,60.42
2023-05-22T20:28:48.489Z,62.27
2023-05-22T20:31:17.538Z,62.22
2023-05-22T20:33:46.904Z,62.34
2023-05-22T20:36:17.940Z,61.82
2023-05-22T20:38:46.670Z,61.76
2023-05-22T20:41:13.128Z,62.19
2023-05-22T20:43:43.280Z,61.45
2023-05-22T20:46:10.430Z,63.31
2023-05-22T20:48:38.089Z,63.84
2023-05-22T20:51:05.044Z,63.28
2023-05-22T20:53:33.985Z,61.80
2023-05-22T20:56:00.599Z,61.00
2023-05-22T20:58:27.392Z,60.41
2023-05-22T21:00:54.245Z,59.75
2023-05-22T21:03:21.518Z,61.72
2023-05-22T21:05:51.086Z,64.49
2023-05-22T21:08:20.508Z,64.50
2023-05-22T21:10:47.132Z,64.23
2023-05-22T21:13:20.031Z,64.29
2023-05-22T21:15:51.450Z,64.20
2023-05-22T21:18:20.390Z,63.56
2023-05-22T21:20:46.962Z,63.05
2023-05-22T21:23:21.965Z,62.75
2023-05-22T21:25:54.887Z,62.44
2023-05-22T21:28:24.254Z,63.26
2023-05-22T21:30:50.866Z,64.59
2023-05-22T21:33:17.454Z,64.76
2023-05-22T21:35:47.490Z,64.91
2023-05-22T21:38:14.109Z,66.73
2023-05-22T21:40:42.727Z,66.48
2023-05-22T21:43:09.519Z,66.27
2023-05-22T21:45:38.966Z,66.22
2023-05-22T21:48:08.005Z,65.57
2023-05-22T21:50:34.719Z,65.75
2023-05-22T21:53:04.078Z,65.76
2023-05-22T21:55:33.018Z,67.98
2023-05-22T21:57:59.616Z,69.13
2023-05-22T22:00:28.541Z,69.49
2023-05-22T22:02:57.395Z,69.17
2023-05-22T22:05:27.589Z,68.85
2023-05-22T22:07:54.264Z,68.78
2023-05-22T22:10:21.291Z,68.91
2023-05-22T22:12:48.105Z,69.72
2023-05-22T22:15:14.798Z,69.67
2023-05-22T22:17:41.425Z,69.44
2023-05-22T22:20:11.673Z,70.88
2023-05-22T22:22:40.099Z,71.57
2023-05-22T22:25:07.075Z,71.38
2023-05-22T22:27:33.674Z,71.41
2023-05-22T22:30:00.349Z,72.14
2023-05-22T22:32:26.987Z,72.69
2023-05-22T22:34:54.164Z,73.40
2023-05-22T22:37:23.564Z,73.44
2023-05-22T22:39:52.430Z,73.65
2023-05-22T22:42:18.869Z,73.66
2023-05-22T22:44:47.966Z,73.62
2023-05-22T22:47:14.555Z,73.56
2023-05-22T22:49:41.159Z,73.42
2023-05-22T22:52:10.376Z,73.53
2023-05-22T22:54:41.945Z,73.29
2023-05-22T22:57:13.566Z,73.25
2023-05-22T22:59:45.530Z,74.78
2023-05-22T23:02:12.129Z,75.50
2023-05-22T23:04:38.844Z,74.95
2023-05-22T23:07:06.200Z,75.45
2023-05-22T23:09:35.926Z,75.61
2023-05-22T23:12:03.029Z,75.36
2023-05-22T23:14:29.601Z,75.23
2023-05-22T23:16:56.586Z,76.93
2023-05-22T23:19:23.346Z,76.63
2023-05-22T23:21:50.207Z,75.31
2023-05-22T23:24:19.238Z,75.52
2023-05-22T23:26:45.862Z,75.58
2023-05-22T23:29:14.516Z,74.18
2023-05-22T23:31:41.140Z,73.87
2023-05-22T23:34:10.123Z,72.86
2023-05-22T23:36:36.914Z,73.02
2023-05-22T23:39:03.741Z,73.67
2023-05-22T23:41:30.369Z,73.28
2023-05-22T23:43:59.166Z,72.87
2023-05-22T23:46:26.159Z,72.54
2023-05-22T23:48:55.024Z,72.58
2023-05-22T23:51:21.543Z,72.29
2023-05-22T23:53:48.113Z,72.58
2023-05-22T23:56:14.726Z,72.66
2023-05-22T23:58:44.090Z,72.56
